EIN49J EIDW-LPFR
Flight info
| Callsign | EIN49J |
|---|---|
| Flight time | 2h 32m |
| Altitude | 36000 |
| Route | PELIG2J PELIG DCT ABAGU DCT TUVEN/M077F360 DCT LASNO T9 BEGAS/N0440F360 DCT PINEK/N0438F370 DCT ALAGU |
| Aircraft | A320/M-SDE3FGHIRWY/LB1 |
Departure
| Time | 2026-05-07 15:25 |
|---|---|
| Airport | Dublin Airport (EIDW) |
Arrival
| Time | 2026-05-07 17:57 |
|---|---|
| Airport | Faro - Gago Coutinho International Airport (LPFR) |
| Time | Latitude | Longitude | Altitude | Speed | Heading |
|---|---|---|---|---|---|
| 2026-05-07 15:08 | 53.42169 | -6.23615 | 211 ft | 0 kts | 27° |
| 2026-05-07 15:11 | 53.42168 | -6.23616 | 211 ft | 2 kts | 27° |
| 2026-05-07 15:12 | 53.42147 | -6.23633 | 216 ft | 2 kts | 27° |
| 2026-05-07 15:12 | 53.42133 | -6.23649 | 213 ft | 4 kts | 92° |
| 2026-05-07 15:12 | 53.42141 | -6.23688 | 211 ft | 4 kts | 116° |
| 2026-05-07 15:12 | 53.42153 | -6.23728 | 211 ft | 4 kts | 122° |
| 2026-05-07 15:13 | 53.42165 | -6.23757 | 211 ft | 4 kts | 126° |
| 2026-05-07 15:13 | 53.42181 | -6.23792 | 211 ft | 4 kts | 128° |
| 2026-05-07 15:13 | 53.42198 | -6.23828 | 211 ft | 4 kts | 124° |
| 2026-05-07 15:13 | 53.42208 | -6.23858 | 211 ft | 3 kts | 116° |
| 2026-05-07 15:14 | 53.42220 | -6.23899 | 212 ft | 4 kts | 116° |
| 2026-05-07 15:14 | 53.42232 | -6.23939 | 213 ft | 4 kts | 116° |
| 2026-05-07 15:14 | 53.42244 | -6.23979 | 212 ft | 4 kts | 116° |
| 2026-05-07 15:14 | 53.42257 | -6.24020 | 214 ft | 4 kts | 116° |
| 2026-05-07 15:15 | 53.42268 | -6.24059 | 216 ft | 4 kts | 117° |
| 2026-05-07 15:15 | 53.42283 | -6.24094 | 211 ft | 4 kts | 150° |
| 2026-05-07 15:15 | 53.42307 | -6.24102 | 211 ft | 4 kts | 198° |
| 2026-05-07 15:15 | 53.42327 | -6.24080 | 214 ft | 4 kts | 225° |
| 2026-05-07 15:16 | 53.42335 | -6.24066 | 211 ft | 0 kts | 225° |
| 2026-05-07 15:18 | 53.42324 | -6.24084 | 215 ft | 6 kts | 222° |
| 2026-05-07 15:18 | 53.42274 | -6.24121 | 211 ft | 9 kts | 198° |
| 2026-05-07 15:18 | 53.42211 | -6.24173 | 216 ft | 12 kts | 219° |
| 2026-05-07 15:18 | 53.42160 | -6.24286 | 216 ft | 13 kts | 259° |
| 2026-05-07 15:19 | 53.42165 | -6.24448 | 214 ft | 15 kts | 275° |
| 2026-05-07 15:19 | 53.42175 | -6.24643 | 215 ft | 18 kts | 275° |
| 2026-05-07 15:19 | 53.42243 | -6.24775 | 211 ft | 15 kts | 336° |
| 2026-05-07 15:19 | 53.42334 | -6.24842 | 213 ft | 13 kts | 336° |
| 2026-05-07 15:20 | 53.42441 | -6.24920 | 213 ft | 23 kts | 336° |
| 2026-05-07 15:20 | 53.42584 | -6.25024 | 216 ft | 22 kts | 336° |
| 2026-05-07 15:20 | 53.42704 | -6.25128 | 213 ft | 16 kts | 310° |
| 2026-05-07 15:20 | 53.42785 | -6.25235 | 214 ft | 14 kts | 336° |
| 2026-05-07 15:21 | 53.42872 | -6.25298 | 214 ft | 13 kts | 336° |
| 2026-05-07 15:21 | 53.42987 | -6.25383 | 214 ft | 25 kts | 336° |
| 2026-05-07 15:21 | 53.43142 | -6.25494 | 213 ft | 22 kts | 336° |
| 2026-05-07 15:21 | 53.43276 | -6.25593 | 214 ft | 20 kts | 336° |
| 2026-05-07 15:22 | 53.43388 | -6.25642 | 216 ft | 15 kts | 22° |
| 2026-05-07 15:22 | 53.43404 | -6.25496 | 211 ft | 14 kts | 95° |
| 2026-05-07 15:22 | 53.43392 | -6.25286 | 211 ft | 23 kts | 95° |
| 2026-05-07 15:22 | 53.43377 | -6.25014 | 211 ft | 23 kts | 95° |
| 2026-05-07 15:23 | 53.43362 | -6.24747 | 216 ft | 21 kts | 96° |
| 2026-05-07 15:23 | 53.43382 | -6.24566 | 213 ft | 15 kts | 34° |
| 2026-05-07 15:23 | 53.43476 | -6.24546 | 218 ft | 12 kts | 5° |
| 2026-05-07 15:23 | 53.43526 | -6.24600 | 217 ft | 8 kts | 276° |
| 2026-05-07 15:24 | 53.43526 | -6.24607 | 215 ft | 3 kts | 275° |
| 2026-05-07 15:24 | 53.43551 | -6.25081 | 212 ft | 79 kts | 275° |
| 2026-05-07 15:24 | 53.43621 | -6.26346 | 213 ft | 139 kts | 275° |
| 2026-05-07 15:24 | 53.43726 | -6.28217 | 392 ft | 169 kts | 271° |
| 2026-05-07 15:25 | 53.43961 | -6.30155 | 1010 ft | 176 kts | 295° |
| 2026-05-07 15:25 | 53.44775 | -6.31754 | 1605 ft | 187 kts | 307° |
| 2026-05-07 15:25 | 53.45674 | -6.33499 | 1907 ft | 208 kts | 304° |
| 2026-05-07 15:25 | 53.46611 | -6.35460 | 2391 ft | 219 kts | 304° |
| 2026-05-07 15:26 | 53.47564 | -6.37586 | 2776 ft | 239 kts | 302° |
| 2026-05-07 15:26 | 53.48578 | -6.39958 | 3222 ft | 258 kts | 302° |
| 2026-05-07 15:26 | 53.49616 | -6.42419 | 3990 ft | 264 kts | 302° |
| 2026-05-07 15:26 | 53.50656 | -6.44978 | 4879 ft | 265 kts | 295° |
| 2026-05-07 15:27 | 53.51061 | -6.47921 | 5679 ft | 260 kts | 261° |
| 2026-05-07 15:27 | 53.50572 | -6.50816 | 6547 ft | 259 kts | 245° |
| 2026-05-07 15:27 | 53.49790 | -6.53552 | 7353 ft | 261 kts | 240° |
| 2026-05-07 15:27 | 53.48919 | -6.56237 | 8181 ft | 264 kts | 240° |
| 2026-05-07 15:28 | 53.48036 | -6.58961 | 9022 ft | 266 kts | 240° |
| 2026-05-07 15:28 | 53.47172 | -6.61720 | 9825 ft | 270 kts | 242° |
| 2026-05-07 15:28 | 53.46229 | -6.64480 | 10447 ft | 278 kts | 236° |
| 2026-05-07 15:28 | 53.45143 | -6.67261 | 10652 ft | 301 kts | 236° |
| 2026-05-07 15:29 | 53.43974 | -6.70306 | 10984 ft | 317 kts | 237° |
| 2026-05-07 15:29 | 53.42779 | -6.73454 | 11609 ft | 323 kts | 237° |
| 2026-05-07 15:29 | 53.41572 | -6.76658 | 12309 ft | 327 kts | 237° |
| 2026-05-07 15:29 | 53.40351 | -6.79901 | 13028 ft | 330 kts | 237° |
| 2026-05-07 15:30 | 53.39121 | -6.83173 | 13730 ft | 333 kts | 237° |
| 2026-05-07 15:30 | 53.37876 | -6.86472 | 14360 ft | 336 kts | 237° |
| 2026-05-07 15:30 | 53.36619 | -6.89790 | 14977 ft | 339 kts | 237° |
| 2026-05-07 15:30 | 53.35350 | -6.93136 | 15582 ft | 342 kts | 237° |
| 2026-05-07 15:31 | 53.34087 | -6.96462 | 16186 ft | 345 kts | 237° |
| 2026-05-07 15:31 | 53.32793 | -6.99865 | 16786 ft | 348 kts | 237° |
| 2026-05-07 15:31 | 53.31487 | -7.03295 | 17370 ft | 351 kts | 237° |
| 2026-05-07 15:31 | 53.30164 | -7.06756 | 17974 ft | 354 kts | 237° |
| 2026-05-07 15:32 | 53.28834 | -7.10233 | 18519 ft | 357 kts | 237° |
| 2026-05-07 15:32 | 53.27493 | -7.13741 | 19044 ft | 360 kts | 237° |
| 2026-05-07 15:32 | 53.26141 | -7.17278 | 19570 ft | 362 kts | 237° |
| 2026-05-07 15:32 | 53.24777 | -7.20835 | 20116 ft | 364 kts | 237° |
| 2026-05-07 15:33 | 53.23420 | -7.24355 | 20658 ft | 367 kts | 236° |
| 2026-05-07 15:33 | 53.22006 | -7.27904 | 21191 ft | 369 kts | 232° |
| 2026-05-07 15:33 | 53.20249 | -7.31037 | 21708 ft | 371 kts | 220° |
| 2026-05-07 15:33 | 53.18137 | -7.33520 | 22221 ft | 374 kts | 210° |
| 2026-05-07 15:34 | 53.15745 | -7.35265 | 22714 ft | 378 kts | 199° |
| 2026-05-07 15:34 | 53.13198 | -7.36445 | 23213 ft | 381 kts | 197° |
| 2026-05-07 15:34 | 53.10636 | -7.37603 | 23665 ft | 383 kts | 197° |
| 2026-05-07 15:34 | 53.08058 | -7.38768 | 24061 ft | 385 kts | 197° |
| 2026-05-07 15:35 | 53.05461 | -7.39942 | 24452 ft | 387 kts | 197° |
| 2026-05-07 15:35 | 53.02858 | -7.41126 | 24824 ft | 389 kts | 197° |
| 2026-05-07 15:35 | 53.00270 | -7.42304 | 25167 ft | 392 kts | 197° |
| 2026-05-07 15:35 | 52.97638 | -7.43499 | 25518 ft | 394 kts | 197° |
| 2026-05-07 15:36 | 52.94982 | -7.44703 | 25873 ft | 396 kts | 196° |
| 2026-05-07 15:36 | 52.92317 | -7.45907 | 26218 ft | 398 kts | 196° |
| 2026-05-07 15:36 | 52.89638 | -7.47116 | 26564 ft | 400 kts | 196° |
| 2026-05-07 15:36 | 52.86944 | -7.48328 | 26909 ft | 402 kts | 196° |
| 2026-05-07 15:37 | 52.84239 | -7.49541 | 27250 ft | 404 kts | 196° |
| 2026-05-07 15:37 | 52.81517 | -7.50764 | 27584 ft | 406 kts | 196° |
| 2026-05-07 15:37 | 52.78828 | -7.51971 | 27902 ft | 408 kts | 196° |
| 2026-05-07 15:37 | 52.76080 | -7.53202 | 28216 ft | 410 kts | 196° |
| 2026-05-07 15:38 | 52.73324 | -7.54434 | 28518 ft | 412 kts | 196° |
| 2026-05-07 15:38 | 52.70550 | -7.55674 | 28845 ft | 413 kts | 196° |
| 2026-05-07 15:38 | 52.67774 | -7.56915 | 29155 ft | 415 kts | 196° |
| 2026-05-07 15:38 | 52.64978 | -7.58160 | 29453 ft | 416 kts | 196° |
| 2026-05-07 15:39 | 52.62178 | -7.59406 | 29734 ft | 418 kts | 196° |
| 2026-05-07 15:39 | 52.59362 | -7.60660 | 30020 ft | 420 kts | 196° |
| 2026-05-07 15:39 | 52.56575 | -7.61901 | 30237 ft | 421 kts | 196° |
| 2026-05-07 15:39 | 52.53744 | -7.63159 | 30458 ft | 423 kts | 196° |
| 2026-05-07 15:40 | 52.50902 | -7.64418 | 30666 ft | 424 kts | 196° |
| 2026-05-07 15:40 | 52.48043 | -7.65666 | 30870 ft | 426 kts | 195° |
| 2026-05-07 15:40 | 52.45177 | -7.66874 | 31151 ft | 425 kts | 195° |
| 2026-05-07 15:40 | 52.42310 | -7.68052 | 31449 ft | 424 kts | 194° |
| 2026-05-07 15:41 | 52.39452 | -7.69212 | 31744 ft | 423 kts | 194° |
| 2026-05-07 15:41 | 52.36593 | -7.70373 | 32041 ft | 422 kts | 195° |
| 2026-05-07 15:41 | 52.33786 | -7.71519 | 32326 ft | 422 kts | 195° |
| 2026-05-07 15:41 | 52.30938 | -7.72685 | 32626 ft | 421 kts | 195° |
| 2026-05-07 15:42 | 52.28105 | -7.73850 | 32921 ft | 420 kts | 195° |
| 2026-05-07 15:42 | 52.25271 | -7.75011 | 33195 ft | 420 kts | 194° |
| 2026-05-07 15:42 | 52.22439 | -7.76170 | 33466 ft | 419 kts | 194° |
| 2026-05-07 15:42 | 52.19612 | -7.77330 | 33765 ft | 419 kts | 195° |
| 2026-05-07 15:43 | 52.16785 | -7.78488 | 34026 ft | 418 kts | 194° |
| 2026-05-07 15:43 | 52.13967 | -7.79640 | 34259 ft | 418 kts | 195° |
| 2026-05-07 15:43 | 52.11190 | -7.80777 | 34466 ft | 418 kts | 195° |
| 2026-05-07 15:43 | 52.08365 | -7.81934 | 34661 ft | 419 kts | 195° |
| 2026-05-07 15:44 | 52.05543 | -7.83085 | 34841 ft | 419 kts | 195° |
| 2026-05-07 15:44 | 52.02712 | -7.84238 | 35021 ft | 420 kts | 195° |
| 2026-05-07 15:44 | 51.99872 | -7.85391 | 35174 ft | 421 kts | 195° |
| 2026-05-07 15:44 | 51.97028 | -7.86543 | 35302 ft | 422 kts | 195° |
| 2026-05-07 15:45 | 51.94175 | -7.87698 | 35441 ft | 424 kts | 195° |
| 2026-05-07 15:45 | 51.91312 | -7.88858 | 35604 ft | 424 kts | 195° |
| 2026-05-07 15:45 | 51.88447 | -7.90016 | 35765 ft | 425 kts | 195° |
| 2026-05-07 15:45 | 51.85619 | -7.91159 | 35926 ft | 425 kts | 195° |
| 2026-05-07 15:46 | 51.77025 | -7.94602 | 35979 ft | 423 kts | 195° |
| 2026-05-07 15:47 | 51.71304 | -7.96904 | 35991 ft | 424 kts | 195° |
| 2026-05-07 15:47 | 51.65580 | -7.99198 | 35991 ft | 424 kts | 195° |
| 2026-05-07 15:48 | 51.59890 | -8.01462 | 35994 ft | 424 kts | 195° |
| 2026-05-07 15:48 | 51.54157 | -8.03734 | 35993 ft | 424 kts | 195° |
| 2026-05-07 15:49 | 51.48427 | -8.06006 | 35988 ft | 424 kts | 195° |
| 2026-05-07 15:49 | 51.42695 | -8.08274 | 35987 ft | 425 kts | 195° |
| 2026-05-07 15:50 | 51.36993 | -8.10533 | 35984 ft | 425 kts | 195° |
| 2026-05-07 15:50 | 51.31245 | -8.12802 | 35986 ft | 425 kts | 195° |
| 2026-05-07 15:51 | 51.25500 | -8.15059 | 35975 ft | 426 kts | 195° |
| 2026-05-07 15:51 | 51.19738 | -8.17311 | 35979 ft | 427 kts | 195° |
| 2026-05-07 15:52 | 51.13999 | -8.19549 | 35988 ft | 428 kts | 195° |
| 2026-05-07 15:52 | 51.08206 | -8.21803 | 35990 ft | 429 kts | 195° |
| 2026-05-07 15:53 | 51.02414 | -8.24062 | 35985 ft | 429 kts | 195° |
| 2026-05-07 15:53 | 50.96633 | -8.26235 | 35988 ft | 430 kts | 193° |
| 2026-05-07 15:54 | 50.90768 | -8.28136 | 35991 ft | 431 kts | 192° |
| 2026-05-07 15:54 | 50.84887 | -8.29969 | 35997 ft | 431 kts | 193° |
| 2026-05-07 15:55 | 50.79006 | -8.31850 | 35997 ft | 431 kts | 193° |
| 2026-05-07 15:55 | 50.73132 | -8.33772 | 36000 ft | 431 kts | 193° |
| 2026-05-07 15:56 | 50.67297 | -8.35680 | 36004 ft | 431 kts | 193° |
| 2026-05-07 15:56 | 50.61415 | -8.37579 | 36006 ft | 431 kts | 193° |
| 2026-05-07 15:57 | 50.55538 | -8.39468 | 36003 ft | 431 kts | 193° |
| 2026-05-07 15:57 | 50.49648 | -8.41369 | 35992 ft | 433 kts | 193° |
| 2026-05-07 15:58 | 50.43778 | -8.43250 | 35994 ft | 434 kts | 193° |
| 2026-05-07 15:58 | 50.37860 | -8.45131 | 35997 ft | 435 kts | 193° |
| 2026-05-07 15:59 | 50.31933 | -8.47029 | 35990 ft | 435 kts | 193° |
| 2026-05-07 15:59 | 50.25994 | -8.48933 | 35996 ft | 436 kts | 193° |
| 2026-05-07 16:00 | 50.20043 | -8.50836 | 36002 ft | 437 kts | 193° |
| 2026-05-07 16:00 | 50.14126 | -8.52703 | 36009 ft | 437 kts | 193° |
| 2026-05-07 16:01 | 50.08169 | -8.54575 | 36009 ft | 437 kts | 193° |
| 2026-05-07 16:01 | 50.02213 | -8.56448 | 36008 ft | 437 kts | 193° |
| 2026-05-07 16:02 | 49.96251 | -8.58319 | 36005 ft | 437 kts | 193° |
| 2026-05-07 16:02 | 49.90334 | -8.60170 | 36007 ft | 437 kts | 193° |
| 2026-05-07 16:03 | 49.84380 | -8.62036 | 35999 ft | 437 kts | 193° |
| 2026-05-07 16:03 | 49.78413 | -8.63906 | 35995 ft | 438 kts | 193° |
| 2026-05-07 16:04 | 49.72437 | -8.65767 | 35995 ft | 439 kts | 193° |
| 2026-05-07 16:04 | 49.66446 | -8.67633 | 35998 ft | 439 kts | 193° |
| 2026-05-07 16:05 | 49.60485 | -8.69485 | 35997 ft | 440 kts | 193° |
| 2026-05-07 16:05 | 49.54483 | -8.71347 | 36008 ft | 440 kts | 193° |
| 2026-05-07 16:06 | 49.48475 | -8.73198 | 36010 ft | 441 kts | 193° |
| 2026-05-07 16:06 | 49.42499 | -8.75031 | 36012 ft | 441 kts | 193° |
| 2026-05-07 16:07 | 49.36488 | -8.76874 | 36004 ft | 440 kts | 193° |
| 2026-05-07 16:07 | 49.30480 | -8.78712 | 36011 ft | 440 kts | 193° |
| 2026-05-07 16:08 | 49.24467 | -8.80548 | 36006 ft | 440 kts | 193° |
| 2026-05-07 16:08 | 49.18462 | -8.82377 | 35998 ft | 440 kts | 193° |
| 2026-05-07 16:09 | 49.12491 | -8.84192 | 36000 ft | 440 kts | 193° |
| 2026-05-07 16:09 | 49.06479 | -8.86014 | 36001 ft | 441 kts | 193° |
| 2026-05-07 16:10 | 49.00457 | -8.87827 | 35999 ft | 441 kts | 194° |
| 2026-05-07 16:10 | 48.94427 | -8.89653 | 35989 ft | 442 kts | 194° |
| 2026-05-07 16:11 | 48.88442 | -8.91466 | 35996 ft | 442 kts | 194° |
| 2026-05-07 16:11 | 48.82414 | -8.93270 | 36002 ft | 442 kts | 194° |
| 2026-05-07 16:12 | 48.76379 | -8.95060 | 36006 ft | 442 kts | 194° |
| 2026-05-07 16:12 | 48.70346 | -8.96860 | 36003 ft | 442 kts | 194° |
| 2026-05-07 16:13 | 48.64359 | -8.98645 | 36012 ft | 442 kts | 194° |
| 2026-05-07 16:13 | 48.58272 | -8.99989 | 36010 ft | 445 kts | 183° |
| 2026-05-07 16:14 | 48.52075 | -8.99982 | 36010 ft | 445 kts | 183° |
| 2026-05-07 16:14 | 48.45877 | -8.99989 | 35997 ft | 445 kts | 183° |
| 2026-05-07 16:15 | 48.39717 | -9.00000 | 35998 ft | 446 kts | 183° |
| 2026-05-07 16:15 | 48.33519 | -9.00010 | 36004 ft | 446 kts | 183° |
| 2026-05-07 16:16 | 48.27315 | -9.00005 | 35990 ft | 446 kts | 183° |
| 2026-05-07 16:16 | 48.21114 | -8.99994 | 35997 ft | 445 kts | 183° |
| 2026-05-07 16:17 | 48.14917 | -8.99988 | 35993 ft | 445 kts | 183° |
| 2026-05-07 16:17 | 48.08763 | -8.99993 | 36003 ft | 445 kts | 183° |
| 2026-05-07 16:18 | 48.02570 | -8.99992 | 35991 ft | 445 kts | 184° |
| 2026-05-07 16:18 | 47.96379 | -8.99998 | 35994 ft | 445 kts | 184° |
| 2026-05-07 16:19 | 47.90193 | -8.99997 | 36000 ft | 445 kts | 184° |
| 2026-05-07 16:19 | 47.84047 | -8.99990 | 35982 ft | 445 kts | 184° |
| 2026-05-07 16:20 | 47.77860 | -8.99994 | 35985 ft | 445 kts | 184° |
| 2026-05-07 16:20 | 47.71672 | -8.99991 | 35989 ft | 445 kts | 184° |
| 2026-05-07 16:21 | 47.65489 | -8.99987 | 35977 ft | 444 kts | 184° |
| 2026-05-07 16:21 | 47.59305 | -8.99994 | 35985 ft | 444 kts | 184° |
| 2026-05-07 16:22 | 47.53160 | -9.00000 | 35984 ft | 444 kts | 184° |
| 2026-05-07 16:22 | 47.46977 | -9.00001 | 35987 ft | 444 kts | 184° |
| 2026-05-07 16:23 | 47.40797 | -8.99998 | 35974 ft | 444 kts | 184° |
| 2026-05-07 16:23 | 47.34618 | -9.00002 | 35982 ft | 444 kts | 184° |
| 2026-05-07 16:24 | 47.28486 | -9.00005 | 35984 ft | 444 kts | 184° |
| 2026-05-07 16:24 | 47.22312 | -8.99993 | 35974 ft | 444 kts | 184° |
| 2026-05-07 16:25 | 47.16137 | -8.99997 | 35976 ft | 444 kts | 184° |
| 2026-05-07 16:25 | 47.09964 | -8.99998 | 35979 ft | 443 kts | 184° |
| 2026-05-07 16:26 | 47.03793 | -8.99991 | 35980 ft | 443 kts | 184° |
| 2026-05-07 16:26 | 46.97662 | -8.99990 | 35966 ft | 443 kts | 184° |
| 2026-05-07 16:27 | 46.91489 | -8.99996 | 35962 ft | 444 kts | 184° |
| 2026-05-07 16:27 | 46.85316 | -9.00003 | 35967 ft | 444 kts | 184° |
| 2026-05-07 16:28 | 46.79135 | -9.00004 | 35944 ft | 445 kts | 184° |
| 2026-05-07 16:28 | 46.72982 | -8.99996 | 35951 ft | 446 kts | 184° |
| 2026-05-07 16:29 | 46.66771 | -8.99991 | 35953 ft | 447 kts | 184° |
| 2026-05-07 16:29 | 46.60550 | -8.99992 | 35927 ft | 447 kts | 184° |
| 2026-05-07 16:30 | 46.54327 | -9.00004 | 35942 ft | 447 kts | 184° |
| 2026-05-07 16:30 | 46.48143 | -9.00006 | 35950 ft | 448 kts | 184° |
| 2026-05-07 16:31 | 46.41915 | -9.00000 | 35953 ft | 448 kts | 184° |
| 2026-05-07 16:31 | 46.35684 | -8.99995 | 35957 ft | 448 kts | 184° |
| 2026-05-07 16:32 | 46.29453 | -8.99999 | 35959 ft | 448 kts | 184° |
| 2026-05-07 16:32 | 46.23266 | -9.00000 | 35961 ft | 448 kts | 184° |
| 2026-05-07 16:33 | 46.17034 | -8.99992 | 35953 ft | 448 kts | 184° |
| 2026-05-07 16:33 | 46.10804 | -8.99989 | 35954 ft | 448 kts | 184° |
| 2026-05-07 16:34 | 46.04572 | -8.99994 | 35954 ft | 448 kts | 184° |
| 2026-05-07 16:34 | 45.98377 | -9.00005 | 35934 ft | 448 kts | 184° |
| 2026-05-07 16:35 | 45.92145 | -9.00003 | 35945 ft | 448 kts | 184° |
| 2026-05-07 16:35 | 45.85907 | -9.00004 | 35943 ft | 448 kts | 184° |
| 2026-05-07 16:36 | 45.79670 | -9.00002 | 35935 ft | 448 kts | 184° |
| 2026-05-07 16:36 | 45.73476 | -8.99996 | 35937 ft | 448 kts | 184° |
| 2026-05-07 16:37 | 45.67238 | -8.99988 | 35945 ft | 448 kts | 184° |
| 2026-05-07 16:37 | 45.60998 | -8.99994 | 35934 ft | 448 kts | 184° |
| 2026-05-07 16:38 | 45.54755 | -8.99988 | 35935 ft | 448 kts | 185° |
| 2026-05-07 16:38 | 45.48526 | -8.99988 | 35946 ft | 447 kts | 185° |
| 2026-05-07 16:39 | 45.42351 | -8.99991 | 35952 ft | 447 kts | 185° |
| 2026-05-07 16:39 | 45.36141 | -8.99996 | 35937 ft | 446 kts | 185° |
| 2026-05-07 16:40 | 45.29938 | -9.00003 | 35941 ft | 446 kts | 185° |
| 2026-05-07 16:40 | 45.23732 | -9.00003 | 35937 ft | 445 kts | 185° |
| 2026-05-07 16:41 | 45.17577 | -8.99995 | 35928 ft | 445 kts | 185° |
| 2026-05-07 16:41 | 45.11378 | -8.99994 | 35929 ft | 446 kts | 185° |
| 2026-05-07 16:42 | 45.05177 | -8.99995 | 35928 ft | 446 kts | 185° |
| 2026-05-07 16:42 | 44.98970 | -8.99866 | 35914 ft | 447 kts | 182° |
| 2026-05-07 16:43 | 44.92795 | -8.99231 | 35923 ft | 449 kts | 179° |
| 2026-05-07 16:43 | 44.86584 | -8.98281 | 35927 ft | 449 kts | 178° |
| 2026-05-07 16:44 | 44.80374 | -8.97343 | 35916 ft | 449 kts | 179° |
| 2026-05-07 16:44 | 44.74159 | -8.96505 | 35916 ft | 448 kts | 179° |
| 2026-05-07 16:45 | 44.67987 | -8.95705 | 35923 ft | 449 kts | 179° |
| 2026-05-07 16:45 | 44.61771 | -8.94895 | 35915 ft | 449 kts | 179° |
| 2026-05-07 16:46 | 44.55550 | -8.94074 | 35917 ft | 449 kts | 179° |
| 2026-05-07 16:46 | 44.49330 | -8.93239 | 35925 ft | 449 kts | 179° |
| 2026-05-07 16:47 | 44.43152 | -8.92413 | 35921 ft | 449 kts | 179° |
| 2026-05-07 16:47 | 44.36937 | -8.91601 | 35920 ft | 448 kts | 179° |
| 2026-05-07 16:48 | 44.30724 | -8.90791 | 35919 ft | 448 kts | 179° |
| 2026-05-07 16:48 | 44.24509 | -8.89975 | 35898 ft | 448 kts | 180° |
| 2026-05-07 16:49 | 44.18345 | -8.89164 | 35902 ft | 448 kts | 179° |
| 2026-05-07 16:49 | 44.12143 | -8.88347 | 35911 ft | 448 kts | 179° |
| 2026-05-07 16:50 | 44.05939 | -8.87538 | 35898 ft | 447 kts | 180° |
| 2026-05-07 16:50 | 43.99749 | -8.86734 | 35903 ft | 447 kts | 180° |
| 2026-05-07 16:51 | 43.93596 | -8.85939 | 35904 ft | 447 kts | 180° |
| 2026-05-07 16:51 | 43.87405 | -8.85135 | 35891 ft | 447 kts | 180° |
| 2026-05-07 16:52 | 43.81229 | -8.84336 | 35905 ft | 446 kts | 180° |
| 2026-05-07 16:52 | 43.75053 | -8.83543 | 35903 ft | 445 kts | 180° |
| 2026-05-07 16:53 | 43.68922 | -8.82758 | 35897 ft | 445 kts | 180° |
| 2026-05-07 16:53 | 43.62762 | -8.81965 | 35890 ft | 445 kts | 180° |
| 2026-05-07 16:54 | 43.56604 | -8.81166 | 35891 ft | 444 kts | 180° |
| 2026-05-07 16:54 | 43.50455 | -8.80377 | 35894 ft | 444 kts | 180° |
| 2026-05-07 16:55 | 43.45345 | -8.79727 | 35886 ft | 443 kts | 180° |
| 2026-05-07 16:55 | 43.38209 | -8.78811 | 35886 ft | 443 kts | 180° |
| 2026-05-07 16:56 | 43.33115 | -8.78163 | 35886 ft | 442 kts | 180° |
| 2026-05-07 16:56 | 43.23930 | -8.76992 | 35875 ft | 442 kts | 180° |
| 2026-05-07 16:57 | 43.16821 | -8.76101 | 35876 ft | 441 kts | 180° |
| 2026-05-07 16:57 | 43.10716 | -8.75328 | 35877 ft | 440 kts | 180° |
| 2026-05-07 16:58 | 43.05643 | -8.74688 | 35863 ft | 440 kts | 180° |
| 2026-05-07 16:58 | 42.99547 | -8.73927 | 35867 ft | 440 kts | 180° |
| 2026-05-07 16:59 | 42.92465 | -8.73038 | 35871 ft | 440 kts | 180° |
| 2026-05-07 16:59 | 42.87359 | -8.72382 | 35852 ft | 439 kts | 180° |
| 2026-05-07 17:00 | 42.81312 | -8.71622 | 35868 ft | 439 kts | 181° |
| 2026-05-07 17:00 | 42.75220 | -8.70868 | 35863 ft | 440 kts | 181° |
| 2026-05-07 17:01 | 42.69120 | -8.70107 | 35854 ft | 441 kts | 181° |
| 2026-05-07 17:01 | 42.63007 | -8.69337 | 35855 ft | 441 kts | 181° |
| 2026-05-07 17:02 | 42.56931 | -8.68588 | 35859 ft | 441 kts | 181° |
| 2026-05-07 17:02 | 42.50815 | -8.67836 | 35865 ft | 442 kts | 181° |
| 2026-05-07 17:03 | 42.44690 | -8.67074 | 35874 ft | 442 kts | 181° |
| 2026-05-07 17:03 | 42.38556 | -8.66312 | 35882 ft | 442 kts | 181° |
| 2026-05-07 17:04 | 42.32471 | -8.65570 | 35888 ft | 442 kts | 181° |
| 2026-05-07 17:04 | 42.26341 | -8.64822 | 35885 ft | 442 kts | 181° |
| 2026-05-07 17:05 | 42.20216 | -8.64061 | 35886 ft | 442 kts | 181° |
| 2026-05-07 17:05 | 42.14089 | -8.63307 | 35883 ft | 442 kts | 181° |
| 2026-05-07 17:06 | 42.07968 | -8.62566 | 35870 ft | 442 kts | 181° |
| 2026-05-07 17:06 | 42.01891 | -8.61821 | 35884 ft | 441 kts | 181° |
| 2026-05-07 17:07 | 41.95772 | -8.61072 | 35890 ft | 441 kts | 181° |
| 2026-05-07 17:07 | 41.89661 | -8.60334 | 35893 ft | 441 kts | 181° |
| 2026-05-07 17:08 | 41.83597 | -8.59378 | 35886 ft | 446 kts | 174° |
| 2026-05-07 17:08 | 41.77519 | -8.57689 | 35890 ft | 446 kts | 174° |
| 2026-05-07 17:09 | 41.71456 | -8.56016 | 35893 ft | 445 kts | 174° |
| 2026-05-07 17:09 | 41.65392 | -8.54350 | 35868 ft | 445 kts | 175° |
| 2026-05-07 17:10 | 41.59370 | -8.52716 | 35872 ft | 444 kts | 175° |
| 2026-05-07 17:10 | 41.53316 | -8.51051 | 35883 ft | 444 kts | 174° |
| 2026-05-07 17:11 | 41.47261 | -8.49384 | 35896 ft | 444 kts | 175° |
| 2026-05-07 17:11 | 41.41203 | -8.47722 | 35898 ft | 444 kts | 175° |
| 2026-05-07 17:12 | 41.35147 | -8.46073 | 35907 ft | 444 kts | 175° |
| 2026-05-07 17:12 | 41.29095 | -8.44427 | 35918 ft | 444 kts | 175° |
| 2026-05-07 17:13 | 41.23084 | -8.42790 | 35888 ft | 443 kts | 175° |
| 2026-05-07 17:13 | 41.17048 | -8.41157 | 35910 ft | 443 kts | 175° |
| 2026-05-07 17:14 | 41.11015 | -8.39535 | 35912 ft | 442 kts | 175° |
| 2026-05-07 17:14 | 41.04988 | -8.37917 | 35910 ft | 441 kts | 175° |
| 2026-05-07 17:15 | 40.99016 | -8.36299 | 35899 ft | 441 kts | 175° |
| 2026-05-07 17:15 | 40.93008 | -8.34672 | 35902 ft | 440 kts | 175° |
| 2026-05-07 17:16 | 40.86995 | -8.33049 | 35892 ft | 441 kts | 175° |
| 2026-05-07 17:16 | 40.80973 | -8.31437 | 35872 ft | 442 kts | 175° |
| 2026-05-07 17:17 | 40.74941 | -8.29829 | 35876 ft | 442 kts | 175° |
| 2026-05-07 17:17 | 40.68943 | -8.28230 | 35881 ft | 443 kts | 175° |
| 2026-05-07 17:18 | 40.62901 | -8.26618 | 35887 ft | 443 kts | 175° |
| 2026-05-07 17:18 | 40.56859 | -8.25008 | 35883 ft | 443 kts | 175° |
| 2026-05-07 17:19 | 40.50812 | -8.23402 | 35902 ft | 443 kts | 176° |
| 2026-05-07 17:19 | 40.44771 | -8.21801 | 35904 ft | 443 kts | 175° |
| 2026-05-07 17:20 | 40.38779 | -8.20209 | 35905 ft | 442 kts | 175° |
| 2026-05-07 17:20 | 40.32743 | -8.18619 | 35900 ft | 442 kts | 175° |
| 2026-05-07 17:21 | 40.26719 | -8.17033 | 35902 ft | 442 kts | 176° |
| 2026-05-07 17:21 | 40.20685 | -8.15445 | 35905 ft | 442 kts | 175° |
| 2026-05-07 17:22 | 40.14666 | -8.13861 | 35893 ft | 441 kts | 176° |
| 2026-05-07 17:22 | 40.08659 | -8.12290 | 35891 ft | 439 kts | 176° |
| 2026-05-07 17:23 | 40.02707 | -8.10734 | 35899 ft | 439 kts | 176° |
| 2026-05-07 17:23 | 39.96717 | -8.09170 | 35877 ft | 439 kts | 176° |
| 2026-05-07 17:24 | 39.90734 | -8.07609 | 35891 ft | 438 kts | 176° |
| 2026-05-07 17:24 | 39.84754 | -8.06051 | 35899 ft | 438 kts | 176° |
| 2026-05-07 17:25 | 39.78789 | -8.04498 | 35893 ft | 437 kts | 176° |
| 2026-05-07 17:25 | 39.72869 | -8.02960 | 35866 ft | 436 kts | 176° |
| 2026-05-07 17:26 | 39.66913 | -8.01417 | 35873 ft | 436 kts | 177° |
| 2026-05-07 17:26 | 39.60958 | -7.99881 | 35883 ft | 436 kts | 176° |
| 2026-05-07 17:27 | 39.55009 | -7.98342 | 35869 ft | 436 kts | 177° |
| 2026-05-07 17:27 | 39.49108 | -7.96826 | 35871 ft | 435 kts | 177° |
| 2026-05-07 17:28 | 39.43183 | -7.95303 | 35877 ft | 434 kts | 177° |
| 2026-05-07 17:28 | 39.37254 | -7.93788 | 35879 ft | 434 kts | 177° |
| 2026-05-07 17:29 | 39.31340 | -7.92272 | 35882 ft | 433 kts | 177° |
| 2026-05-07 17:29 | 39.25433 | -7.90758 | 35874 ft | 432 kts | 177° |
| 2026-05-07 17:30 | 39.19581 | -7.89262 | 35877 ft | 431 kts | 177° |
| 2026-05-07 17:30 | 39.13702 | -7.87761 | 35878 ft | 431 kts | 177° |
| 2026-05-07 17:31 | 39.07819 | -7.86268 | 35856 ft | 431 kts | 177° |
| 2026-05-07 17:31 | 39.01949 | -7.84775 | 35872 ft | 430 kts | 177° |
| 2026-05-07 17:32 | 38.96085 | -7.83292 | 35877 ft | 429 kts | 177° |
| 2026-05-07 17:32 | 38.90269 | -7.81821 | 35879 ft | 429 kts | 177° |
| 2026-05-07 17:33 | 38.84423 | -7.80338 | 35872 ft | 428 kts | 177° |
| 2026-05-07 17:33 | 38.78587 | -7.78862 | 35885 ft | 427 kts | 178° |
| 2026-05-07 17:34 | 38.72769 | -7.77394 | 35890 ft | 426 kts | 178° |
| 2026-05-07 17:34 | 38.66988 | -7.75943 | 35773 ft | 427 kts | 178° |
| 2026-05-07 17:35 | 38.64078 | -7.75212 | 35515 ft | 427 kts | 178° |
| 2026-05-07 17:35 | 38.61160 | -7.74478 | 35240 ft | 427 kts | 178° |
| 2026-05-07 17:35 | 38.58254 | -7.73749 | 34996 ft | 426 kts | 177° |
| 2026-05-07 17:35 | 38.55337 | -7.73019 | 34753 ft | 427 kts | 177° |
| 2026-05-07 17:36 | 38.52418 | -7.72288 | 34508 ft | 428 kts | 177° |
| 2026-05-07 17:36 | 38.49500 | -7.71560 | 34200 ft | 428 kts | 177° |
| 2026-05-07 17:36 | 38.46555 | -7.70827 | 33257 ft | 433 kts | 177° |
| 2026-05-07 17:36 | 38.43592 | -7.70091 | 32374 ft | 435 kts | 176° |
| 2026-05-07 17:37 | 38.40621 | -7.69351 | 31764 ft | 432 kts | 175° |
| 2026-05-07 17:37 | 38.37719 | -7.68661 | 31042 ft | 426 kts | 180° |
| 2026-05-07 17:37 | 38.34783 | -7.68511 | 29946 ft | 426 kts | 185° |
| 2026-05-07 17:37 | 38.31802 | -7.68486 | 29072 ft | 428 kts | 185° |
| 2026-05-07 17:38 | 38.28849 | -7.68463 | 28533 ft | 422 kts | 185° |
| 2026-05-07 17:38 | 38.25932 | -7.68443 | 27959 ft | 417 kts | 185° |
| 2026-05-07 17:38 | 38.23045 | -7.68425 | 27388 ft | 413 kts | 184° |
| 2026-05-07 17:38 | 38.20186 | -7.68405 | 26838 ft | 409 kts | 184° |
| 2026-05-07 17:39 | 38.17355 | -7.68385 | 26282 ft | 405 kts | 184° |
| 2026-05-07 17:39 | 38.14553 | -7.68364 | 25745 ft | 401 kts | 184° |
| 2026-05-07 17:39 | 38.11767 | -7.68345 | 25214 ft | 398 kts | 184° |
| 2026-05-07 17:39 | 38.09016 | -7.68324 | 24705 ft | 394 kts | 184° |
| 2026-05-07 17:40 | 38.06282 | -7.68304 | 24200 ft | 391 kts | 184° |
| 2026-05-07 17:40 | 38.03618 | -7.68284 | 23729 ft | 387 kts | 184° |
| 2026-05-07 17:40 | 38.00933 | -7.68266 | 23211 ft | 384 kts | 184° |
| 2026-05-07 17:40 | 37.98276 | -7.68249 | 22748 ft | 379 kts | 184° |
| 2026-05-07 17:41 | 37.95654 | -7.68233 | 22294 ft | 375 kts | 184° |
| 2026-05-07 17:41 | 37.93061 | -7.68214 | 21834 ft | 370 kts | 183° |
| 2026-05-07 17:41 | 37.90503 | -7.68194 | 21405 ft | 366 kts | 183° |
| 2026-05-07 17:41 | 37.87967 | -7.68176 | 20956 ft | 362 kts | 183° |
| 2026-05-07 17:42 | 37.85454 | -7.68161 | 20512 ft | 359 kts | 183° |
| 2026-05-07 17:42 | 37.82997 | -7.68146 | 20060 ft | 356 kts | 183° |
| 2026-05-07 17:42 | 37.80526 | -7.68129 | 19606 ft | 354 kts | 183° |
| 2026-05-07 17:42 | 37.78074 | -7.68112 | 19148 ft | 352 kts | 183° |
| 2026-05-07 17:43 | 37.75630 | -7.68094 | 18685 ft | 350 kts | 182° |
| 2026-05-07 17:43 | 37.73202 | -7.68075 | 18224 ft | 349 kts | 182° |
| 2026-05-07 17:43 | 37.70775 | -7.68057 | 17710 ft | 347 kts | 182° |
| 2026-05-07 17:43 | 37.68369 | -7.68042 | 17246 ft | 344 kts | 182° |
| 2026-05-07 17:44 | 37.65985 | -7.68023 | 16796 ft | 341 kts | 182° |
| 2026-05-07 17:44 | 37.63618 | -7.68005 | 16353 ft | 339 kts | 182° |
| 2026-05-07 17:44 | 37.61298 | -7.67985 | 15917 ft | 337 kts | 182° |
| 2026-05-07 17:44 | 37.58960 | -7.67967 | 15475 ft | 335 kts | 181° |
| 2026-05-07 17:45 | 37.56635 | -7.67951 | 15035 ft | 334 kts | 181° |
| 2026-05-07 17:45 | 37.54317 | -7.67933 | 14598 ft | 332 kts | 181° |
| 2026-05-07 17:45 | 37.52016 | -7.67916 | 14160 ft | 331 kts | 181° |
| 2026-05-07 17:45 | 37.49719 | -7.67903 | 13719 ft | 330 kts | 181° |
| 2026-05-07 17:46 | 37.47428 | -7.67890 | 13239 ft | 328 kts | 181° |
| 2026-05-07 17:46 | 37.45154 | -7.67875 | 12787 ft | 325 kts | 181° |
| 2026-05-07 17:46 | 37.42908 | -7.67858 | 12350 ft | 322 kts | 181° |
| 2026-05-07 17:46 | 37.40672 | -7.67843 | 11900 ft | 320 kts | 181° |
| 2026-05-07 17:47 | 37.38487 | -7.67827 | 11457 ft | 318 kts | 180° |
| 2026-05-07 17:47 | 37.36285 | -7.67810 | 11010 ft | 315 kts | 181° |
| 2026-05-07 17:47 | 37.34093 | -7.67794 | 10558 ft | 314 kts | 181° |
| 2026-05-07 17:47 | 37.31928 | -7.67780 | 10259 ft | 306 kts | 181° |
| 2026-05-07 17:48 | 37.29838 | -7.67764 | 10148 ft | 294 kts | 180° |
| 2026-05-07 17:48 | 37.27835 | -7.67748 | 9987 ft | 284 kts | 180° |
| 2026-05-07 17:48 | 37.25885 | -7.67733 | 9862 ft | 277 kts | 181° |
| 2026-05-07 17:48 | 37.23954 | -7.67721 | 9567 ft | 279 kts | 181° |
| 2026-05-07 17:49 | 37.22025 | -7.67708 | 8921 ft | 275 kts | 180° |
| 2026-05-07 17:49 | 37.20137 | -7.67695 | 8322 ft | 269 kts | 180° |
| 2026-05-07 17:49 | 37.18292 | -7.67685 | 7725 ft | 269 kts | 179° |
| 2026-05-07 17:49 | 37.16415 | -7.67673 | 7149 ft | 270 kts | 179° |
| 2026-05-07 17:50 | 37.14535 | -7.67658 | 6571 ft | 271 kts | 179° |
| 2026-05-07 17:50 | 37.12641 | -7.67645 | 5959 ft | 272 kts | 178° |
| 2026-05-07 17:50 | 37.10756 | -7.67634 | 5365 ft | 270 kts | 179° |
| 2026-05-07 17:50 | 37.08903 | -7.67621 | 5043 ft | 259 kts | 179° |
| 2026-05-07 17:51 | 37.07155 | -7.67608 | 4984 ft | 244 kts | 179° |
| 2026-05-07 17:51 | 37.05510 | -7.67593 | 4928 ft | 230 kts | 179° |
| 2026-05-07 17:51 | 37.03923 | -7.67580 | 4885 ft | 227 kts | 179° |
| 2026-05-07 17:51 | 37.02342 | -7.67596 | 4628 ft | 231 kts | 186° |
| 2026-05-07 17:52 | 37.00783 | -7.68137 | 4198 ft | 232 kts | 208° |
| 2026-05-07 17:52 | 36.99523 | -7.69276 | 4037 ft | 222 kts | 227° |
| 2026-05-07 17:52 | 36.98655 | -7.70805 | 3884 ft | 212 kts | 246° |
| 2026-05-07 17:52 | 36.98227 | -7.72532 | 3681 ft | 206 kts | 263° |
| 2026-05-07 17:53 | 36.98249 | -7.74298 | 3444 ft | 203 kts | 279° |
| 2026-05-07 17:53 | 36.98497 | -7.76022 | 3185 ft | 200 kts | 281° |
| 2026-05-07 17:53 | 36.98741 | -7.77715 | 2919 ft | 194 kts | 281° |
| 2026-05-07 17:53 | 36.98977 | -7.79354 | 2667 ft | 190 kts | 281° |
| 2026-05-07 17:54 | 36.99209 | -7.80967 | 2418 ft | 187 kts | 282° |
| 2026-05-07 17:54 | 36.99438 | -7.82562 | 2165 ft | 185 kts | 282° |
| 2026-05-07 17:54 | 36.99666 | -7.84145 | 1926 ft | 184 kts | 281° |
| 2026-05-07 17:54 | 36.99882 | -7.85659 | 1693 ft | 173 kts | 281° |
| 2026-05-07 17:55 | 37.00086 | -7.87086 | 1447 ft | 161 kts | 281° |
| 2026-05-07 17:55 | 37.00276 | -7.88411 | 1253 ft | 146 kts | 281° |
| 2026-05-07 17:55 | 37.00444 | -7.89601 | 1060 ft | 134 kts | 280° |
| 2026-05-07 17:55 | 37.00600 | -7.90723 | 856 ft | 129 kts | 280° |
| 2026-05-07 17:56 | 37.00776 | -7.91818 | 664 ft | 128 kts | 277° |
| 2026-05-07 17:56 | 37.00934 | -7.92901 | 512 ft | 125 kts | 275° |
| 2026-05-07 17:56 | 37.01082 | -7.93982 | 365 ft | 127 kts | 277° |
| 2026-05-07 17:56 | 37.01235 | -7.95071 | 183 ft | 127 kts | 277° |
| 2026-05-07 17:57 | 37.01387 | -7.96150 | 32 ft | 122 kts | 276° |
| 2026-05-07 17:57 | 37.01471 | -7.96777 | 22 ft | 90 kts | 279° |
| 2026-05-07 17:57 | 37.01557 | -7.97385 | 20 ft | 39 kts | 280° |
| 2026-05-07 17:57 | 37.01600 | -7.97688 | 20 ft | 31 kts | 280° |
| 2026-05-07 17:58 | 37.01656 | -7.97851 | 19 ft | 15 kts | 348° |
| 2026-05-07 17:58 | 37.01731 | -7.97785 | 20 ft | 13 kts | 60° |
| 2026-05-07 17:58 | 37.01766 | -7.97683 | 20 ft | 12 kts | 76° |
| 2026-05-07 17:58 | 37.01769 | -7.97584 | 20 ft | 10 kts | 94° |
| 2026-05-07 17:59 | 37.01768 | -7.97576 | 20 ft | 0 kts | 98° |
| 2026-05-07 17:59 | 37.01764 | -7.97545 | 20 ft | 9 kts | 99° |
| 2026-05-07 17:59 | 37.01744 | -7.97401 | 20 ft | 20 kts | 100° |
| 2026-05-07 18:00 | 37.01720 | -7.97235 | 20 ft | 19 kts | 101° |
| 2026-05-07 18:00 | 37.01696 | -7.97080 | 22 ft | 17 kts | 101° |
| 2026-05-07 18:00 | 37.01684 | -7.96941 | 20 ft | 15 kts | 74° |
| 2026-05-07 18:00 | 37.01767 | -7.96889 | 20 ft | 13 kts | 11° |
| 2026-05-07 18:01 | 37.01850 | -7.96852 | 22 ft | 12 kts | 12° |
| 2026-05-07 18:01 | 37.01885 | -7.96844 | 21 ft | 3 kts | 9° |
| 2026-05-07 18:01 | 37.01902 | -7.96840 | 20 ft | 2 kts | 10° |
| 2026-05-07 18:01 | 37.01914 | -7.96838 | 20 ft | 1 kts | 10° |
| 2026-05-07 18:02 | 37.01917 | -7.96837 | 20 ft | 0 kts | 10° |